Detall de PIREP

Printer-friendly versionPDF version

[2016/09/03 14:55:00]
Flight IATA:CT1051
Pilot Number:012
Company ICAO:CAT
Aircraft Type:F50/A
PAX:50
Aircraft Registration:PAOB
Departing Airport: LFKJ
Destination Airport: LICJ
Alternate Airport:LICG
Online: VATSIM
Route:CORSI M858 RAMEN M732 CAR M871 KAPIL
Flight Level:F190
No Slew and time accel
No pause
Crash detect
Detect pilot in Cockpit between each 30 and 45 minutes
14:55 Zero fuel Weight: 37296 Lbs, Fuel Weight: 5908 Lbs
14:55 VATSIM:LFKJ 031430Z 21010KT 9999 FEW050 SCT260 28/22 Q1018 NOSIG
14:55 VATSIM:LICJ 031420Z 34005KT CAVOK 28/21 Q1019
14:56 MEDITERRANEAN ODYSSEY
14:58 Parking Brakes off
15:02 Take-off
15:02 Take off Weight: 43120 Lbs
15:02 Wind: 208º @ 010 Knots Heading: 204º
15:02 POS N41º 55´ 13´´ E008º 48´ 00´´
15:02 Flaps:2 at 114 Knots
15:02 Gear Up: 116 Knots
15:03 Flaps:0 at 149 Knots
15:17 Wind:308º@012 Knots Heading: 178º Ground Speed:215 Knots Altitude 17795 ft
15:18 TOC
15:18 Fuel Weight: 5256 Lb
15:32 Wind:336º@013 Knots Heading: 177º Ground Speed: 268 Knots Altitude 19120 ft
15:47 Wind:345º@015 Knots Heading: 145º Ground Speed: 270 Knots Altitude 19127 ft
16:02 Wind:345º@015 Knots Heading: 085º Ground Speed: 259 Knots Altitude 19124 ft
16:17 Wind:345º@017 Knots Heading: 103º Ground Speed: 265 Knots Altitude 19117 ft
16:24 TOD
16:24 Fuel Weight: 3511 Lb
16:32 Wind:343º@012 Knots Heading: 043º Ground Speed: 249 Knots Altitude 8257 ft
16:36 Flaps:1 at 153 Knots
16:36 Flaps:2 at 140 Knots
16:38 Flaps:3 at 168 Knots
16:39 Gear Down: 163 Knots
16:40 Flaps:4 at 148 Knots
16:41 Flaps:5 at 137 Knots
16:41 Flaps:6 at 132 Knots
16:44 TouchDown:Rate -172 ft/min Speed: 102 Knots
16:44 VATSIM:LICJ 031620Z 35006KT CAVOK 27/20 Q1018
16:44 Land
16:44 Wind:347º@006 Knots
16:44 Heading: 273º
16:44 Flight Duration: 01:42
16:44 Landing Weight: 40437 Lbs
16:44 POS N38º 10´ 54´´ E013º 06´ 29´´
16:46 Parking brakes on
16:46 Block to Block Duration: 01:48
16:46 Final Fuel: 3117 Lbls
16:46 Spent Fuel: 2791 Lbls
16:46 Flight Length: 411 NM
16:46 TOD Land Length: 68 NM

Exportar CSV

Powered by Drupal - Modified by Danger4k